createdAt,value
2019-04-04T06:45:20.170Z,27.31
2019-04-04T06:47:46.534Z,27.05
2019-04-04T06:50:12.927Z,27.38
2019-04-04T06:52:39.318Z,27.25
2019-04-04T06:55:05.615Z,27.38
2019-04-04T06:57:32.012Z,27.57
2019-04-04T07:00:06.751Z,27.49
2019-04-04T07:02:33.067Z,27.23
2019-04-04T07:04:59.499Z,27.30
2019-04-04T07:07:25.842Z,27.18
2019-04-04T07:09:52.164Z,27.07
2019-04-04T07:12:27.859Z,26.91
2019-04-04T07:14:49.449Z,27.29
2019-04-04T07:17:16.163Z,27.19
2019-04-04T07:19:39.661Z,27.05
2019-04-04T07:22:06.052Z,27.26
2019-04-04T07:24:32.391Z,27.28
2019-04-04T07:26:58.730Z,27.25
2019-04-04T07:29:25.891Z,27.23
2019-04-04T07:31:51.427Z,27.38
2019-04-04T07:34:17.767Z,27.32
2019-04-04T07:36:44.130Z,27.35
2019-04-04T07:39:12.313Z,26.93
2019-04-04T07:41:40.057Z,27.28
2019-04-04T07:44:03.229Z,27.48
2019-04-04T07:46:29.554Z,27.43
2019-04-04T07:48:55.989Z,27.25
2019-04-04T07:51:22.368Z,27.24
2019-04-04T07:53:48.741Z,27.15
2019-04-04T07:56:15.133Z,27.22
2019-04-04T07:58:41.496Z,27.28
2019-04-04T08:01:08.038Z,27.17
2019-04-04T08:03:34.369Z,27.21
2019-04-04T08:06:00.757Z,27.40
2019-04-04T08:08:27.217Z,27.28
2019-04-04T08:10:53.780Z,27.42
2019-04-04T08:13:20.165Z,27.50
2019-04-04T08:15:48.685Z,27.25
2019-04-04T08:18:15.169Z,27.53
2019-04-04T08:20:41.551Z,27.42
2019-04-04T08:23:07.947Z,27.42
2019-04-04T08:25:34.254Z,27.51
2019-04-04T08:28:00.636Z,27.41
2019-04-04T08:30:27.079Z,27.46
2019-04-04T08:32:53.459Z,27.31
2019-04-04T08:35:20.254Z,27.31
2019-04-04T08:40:21.878Z,27.42
2019-04-04T08:42:48.220Z,27.50
2019-04-04T08:45:14.614Z,27.38
2019-04-04T08:47:40.942Z,27.49
2019-04-04T08:50:07.319Z,27.48
2019-04-04T08:52:33.686Z,27.34
2019-04-04T08:55:00.031Z,27.51
2019-04-04T08:57:26.438Z,27.49
2019-04-04T08:59:52.798Z,27.44
2019-04-04T09:02:19.229Z,27.41
2019-04-04T09:04:45.563Z,27.59
2019-04-04T09:07:11.929Z,27.54
2019-04-04T09:09:38.408Z,27.39
2019-04-04T09:12:04.706Z,27.47
2019-04-04T09:14:31.123Z,27.37
2019-04-04T09:16:57.464Z,27.39
2019-04-04T09:19:23.857Z,27.34
2019-04-04T09:21:50.162Z,27.46
2019-04-04T09:24:16.691Z,27.39
2019-04-04T09:26:43.079Z,27.29
2019-04-04T09:29:09.402Z,27.57
2019-04-04T09:31:35.783Z,27.49
2019-04-04T09:34:02.137Z,27.31
2019-04-04T09:36:28.524Z,27.55
2019-04-04T09:38:54.839Z,27.60
2019-04-04T09:41:21.188Z,27.73
2019-04-04T09:43:47.529Z,27.63
2019-04-04T09:46:14.136Z,27.82
2019-04-04T09:48:40.469Z,27.72
2019-04-04T09:51:06.894Z,27.60
2019-04-04T09:53:33.199Z,27.68
2019-04-04T09:55:59.556Z,27.68
2019-04-04T09:58:25.931Z,27.62
2019-04-04T10:00:52.257Z,27.59
2019-04-04T10:03:18.652Z,27.55
2019-04-04T10:05:45.004Z,27.67
2019-04-04T10:08:11.449Z,27.73
2019-04-04T10:10:37.757Z,27.70
2019-04-04T10:13:04.116Z,27.69
2019-04-04T10:15:30.511Z,27.47
2019-04-04T10:17:56.871Z,27.53
2019-04-04T10:20:23.372Z,27.62
2019-04-04T10:22:49.708Z,27.69
2019-04-04T10:25:16.067Z,27.55
2019-04-04T10:27:42.418Z,27.70
2019-04-04T10:30:08.751Z,27.84
2019-04-04T10:32:35.106Z,27.82
2019-04-04T10:35:01.490Z,27.59
2019-04-04T10:37:27.831Z,27.73
2019-04-04T10:39:54.201Z,27.92
2019-04-04T10:42:20.533Z,28.01
2019-04-04T10:44:46.883Z,27.91
2019-04-04T10:47:15.608Z,28.14
2019-04-04T10:49:40.204Z,27.92
2019-04-04T10:52:06.629Z,28.13
2019-04-04T10:54:33.034Z,28.14
2019-04-04T10:56:59.392Z,28.10
2019-04-04T10:59:25.770Z,28.29
2019-04-04T11:01:52.163Z,28.21
2019-04-04T11:04:18.525Z,28.29
2019-04-04T11:06:44.904Z,28.35
2019-04-04T11:09:11.288Z,28.29
2019-04-04T11:11:37.692Z,28.37
2019-04-04T11:14:04.063Z,28.24
2019-04-04T11:16:30.775Z,28.22
2019-04-04T11:18:56.743Z,28.38
2019-04-04T11:21:23.533Z,28.49
2019-04-04T11:23:49.863Z,28.52
2019-04-04T11:26:16.238Z,28.47
2019-04-04T11:28:42.720Z,28.54
2019-04-04T11:31:09.103Z,28.57
2019-04-04T11:33:35.396Z,28.56
2019-04-04T11:36:01.828Z,28.70
2019-04-04T11:38:28.174Z,28.72
2019-04-04T11:40:54.513Z,28.60
2019-04-04T11:43:20.857Z,28.73
2019-04-04T11:45:48.282Z,28.73
2019-04-04T11:48:14.657Z,28.75
2019-04-04T11:50:41.015Z,28.85
2019-04-04T11:53:07.416Z,28.85
2019-04-04T11:55:34.250Z,28.81
2019-04-04T11:58:00.224Z,28.89
2019-04-04T12:00:26.619Z,28.85
2019-04-04T12:02:53.017Z,28.75
2019-04-04T12:05:19.386Z,28.76
2019-04-04T12:07:45.786Z,28.94
2019-04-04T12:10:12.190Z,28.92
2019-04-04T12:12:38.736Z,29.08
2019-04-04T12:15:05.213Z,28.92
2019-04-04T12:17:31.513Z,28.93
2019-04-04T12:19:58.276Z,28.99
2019-04-04T12:22:24.742Z,28.96
2019-04-04T12:24:51.141Z,28.85
2019-04-04T12:27:17.507Z,28.66
2019-04-04T12:29:43.905Z,28.86
2019-04-04T12:32:10.366Z,28.89
2019-04-04T12:34:36.759Z,28.84
2019-04-04T12:37:03.053Z,28.78
2019-04-04T12:39:29.463Z,28.80
2019-04-04T12:41:55.872Z,28.81
2019-04-04T12:44:22.377Z,28.82
2019-04-04T12:46:48.768Z,28.85
2019-04-04T12:49:15.141Z,28.56
2019-04-04T12:51:41.534Z,28.72
2019-04-04T12:54:07.997Z,28.69
2019-04-04T12:56:34.806Z,28.44
2019-04-04T12:59:01.609Z,28.60
2019-04-04T13:01:27.894Z,28.45
2019-04-04T13:03:54.312Z,28.37
2019-04-04T13:06:20.735Z,28.45
2019-04-04T13:08:47.076Z,28.42
2019-04-04T13:11:13.569Z,28.28
2019-04-04T13:13:39.978Z,28.09
2019-04-04T13:16:06.361Z,28.18
2019-04-04T13:18:32.754Z,28.23
2019-04-04T13:20:58.996Z,28.18
2019-04-04T13:23:25.557Z,27.95
2019-04-04T13:25:51.855Z,28.03
2019-04-04T13:28:18.272Z,27.99
2019-04-04T13:30:44.990Z,28.07
2019-04-04T13:33:11.475Z,27.88
2019-04-04T13:35:38.471Z,27.72
2019-04-04T13:38:04.373Z,27.82
2019-04-04T13:40:30.741Z,27.79
2019-04-04T13:42:57.073Z,28.03
2019-04-04T13:45:26.072Z,27.99
2019-04-04T13:47:51.946Z,27.86
2019-04-04T13:50:20.357Z,27.83
2019-04-04T13:52:44.660Z,27.87
2019-04-04T13:55:11.000Z,27.80
2019-04-04T13:57:39.343Z,27.96
2019-04-04T14:00:03.830Z,27.76
2019-04-04T14:02:30.202Z,27.92
2019-04-04T14:05:08.930Z,27.92
2019-04-04T14:07:23.786Z,27.72
2019-04-04T14:09:50.442Z,27.79
2019-04-04T14:12:16.892Z,27.71
2019-04-04T14:14:43.522Z,27.82
2019-04-04T14:17:10.155Z,27.85
2019-04-04T14:19:37.099Z,27.68
2019-04-04T14:22:03.665Z,27.63
2019-04-04T14:24:30.378Z,27.55
2019-04-04T14:26:56.663Z,27.74
2019-04-04T14:29:27.777Z,27.68
2019-04-04T14:31:49.432Z,27.77
2019-04-04T14:34:15.715Z,27.76
2019-04-04T14:36:42.078Z,27.77
2019-04-04T14:39:08.410Z,27.44
2019-04-04T14:41:34.777Z,27.52
2019-04-04T14:44:01.136Z,27.57
2019-04-04T14:46:27.502Z,27.63
2019-04-04T14:48:53.871Z,27.76
2019-04-04T14:51:20.273Z,27.44
2019-04-04T14:53:46.593Z,27.73
2019-04-04T14:56:13.052Z,27.56
2019-04-04T14:58:39.389Z,27.69
2019-04-04T15:01:05.754Z,27.51
2019-04-04T15:03:32.096Z,27.58
2019-04-04T15:05:58.500Z,27.74
2019-04-04T15:08:24.857Z,27.82
2019-04-04T15:10:51.201Z,27.61
2019-04-04T15:13:17.563Z,27.79
2019-04-04T15:15:43.938Z,27.66
2019-04-04T15:18:10.454Z,27.53
2019-04-04T15:20:36.804Z,27.76
2019-04-04T15:23:03.196Z,27.71
2019-04-04T15:25:29.536Z,27.72
2019-04-04T15:27:55.880Z,27.60
2019-04-04T15:30:22.256Z,27.49
2019-04-04T15:32:48.643Z,27.54
2019-04-04T15:35:14.972Z,27.56
2019-04-04T15:37:41.407Z,27.57
2019-04-04T15:40:07.743Z,27.53
2019-04-04T15:42:34.085Z,27.71
2019-04-04T15:45:00.436Z,27.53
2019-04-04T15:47:26.832Z,27.44
2019-04-04T15:49:53.171Z,27.54
2019-04-04T15:52:19.586Z,27.35
2019-04-04T15:54:45.979Z,27.59
2019-04-04T15:57:12.423Z,27.26
2019-04-04T15:59:38.727Z,27.38
2019-04-04T16:02:05.063Z,27.39
2019-04-04T16:04:31.423Z,27.46
2019-04-04T16:06:57.801Z,27.57
2019-04-04T16:09:24.130Z,27.51
2019-04-04T16:11:50.514Z,27.53
2019-04-04T16:14:16.850Z,27.45
2019-04-04T16:16:43.277Z,27.47
2019-04-04T16:19:09.591Z,27.35
2019-04-04T16:21:36.081Z,27.42
2019-04-04T16:24:02.375Z,27.46
2019-04-04T16:26:30.531Z,27.47
2019-04-04T16:28:55.102Z,27.60
2019-04-04T16:31:25.599Z,27.58
2019-04-04T16:33:51.947Z,27.68
2019-04-04T16:36:18.324Z,27.81
2019-04-04T16:38:44.701Z,27.89
2019-04-04T16:41:11.010Z,28.25
2019-04-04T16:43:37.350Z,28.02
2019-04-04T16:46:03.667Z,27.86
2019-04-04T16:48:30.032Z,27.90
2019-04-04T16:50:56.412Z,27.79
2019-04-04T16:53:22.746Z,28.02
2019-04-04T16:55:49.099Z,27.88
2019-04-04T16:58:15.429Z,28.13
2019-04-04T17:00:41.802Z,28.15
2019-04-04T17:03:08.134Z,27.57
2019-04-04T17:05:34.525Z,28.00
2019-04-04T17:08:00.894Z,28.28
2019-04-04T17:10:28.273Z,28.31
2019-04-04T17:12:53.640Z,28.32
2019-04-04T17:15:19.932Z,28.28
2019-04-04T17:17:46.283Z,28.31
2019-04-04T17:20:12.682Z,28.26
2019-04-04T17:22:39.064Z,28.31
2019-04-04T17:25:05.403Z,28.26
2019-04-04T17:27:31.925Z,28.26
2019-04-04T17:29:58.317Z,28.27
2019-04-04T17:32:24.660Z,28.30
2019-04-04T17:34:51.316Z,28.39
2019-04-04T17:37:17.709Z,28.39
2019-04-04T17:39:43.916Z,28.43
2019-04-04T17:42:12.709Z,28.44
2019-04-04T17:44:39.096Z,28.47
2019-04-04T17:47:05.466Z,28.48
2019-04-04T17:49:31.781Z,28.66
2019-04-04T17:51:58.383Z,28.69
2019-04-04T17:54:24.544Z,28.77
2019-04-04T17:56:50.813Z,28.75
2019-04-04T17:59:17.183Z,28.93
2019-04-04T18:01:43.534Z,28.93
2019-04-04T18:04:09.862Z,28.96
2019-04-04T18:06:36.268Z,29.05
2019-04-04T18:09:02.597Z,29.11
2019-04-04T18:11:28.944Z,29.11
2019-04-04T18:13:55.301Z,29.27
2019-04-04T18:16:21.640Z,29.32
2019-04-04T18:18:48.005Z,29.36
2019-04-04T18:21:14.317Z,29.29
2019-04-04T18:23:40.650Z,29.27
2019-04-04T18:26:06.990Z,29.49
2019-04-04T18:28:33.328Z,29.54
2019-04-04T18:30:59.700Z,29.66
2019-04-04T18:33:26.389Z,29.56
2019-04-04T18:35:52.414Z,29.63
2019-04-04T18:38:18.788Z,29.67
2019-04-04T18:40:45.114Z,29.83
2019-04-04T18:43:11.444Z,29.79
2019-04-04T18:45:37.798Z,29.96
2019-04-04T18:48:04.153Z,29.95
2019-04-04T18:50:30.523Z,29.86
2019-04-04T18:52:56.927Z,30.01
2019-04-04T18:55:23.259Z,29.97
2019-04-04T18:57:49.594Z,30.14
2019-04-04T19:00:15.922Z,30.17
2019-04-04T19:02:42.307Z,30.17
2019-04-04T19:05:08.643Z,30.17
2019-04-04T19:07:39.732Z,30.20
2019-04-04T19:10:01.310Z,30.25
2019-04-04T19:12:27.683Z,30.42
2019-04-04T19:14:54.016Z,30.33
2019-04-04T19:17:20.373Z,30.45
2019-04-04T19:19:46.743Z,30.47
2019-04-04T19:22:13.070Z,30.50
2019-04-04T19:24:39.434Z,30.45
2019-04-04T19:27:05.815Z,30.53
2019-04-04T19:29:32.198Z,30.60
2019-04-04T19:31:58.500Z,30.54
2019-04-04T19:34:24.826Z,30.64
2019-04-04T19:36:51.218Z,30.62
2019-04-04T19:39:17.607Z,30.70
2019-04-04T19:41:44.078Z,30.72
2019-04-04T19:44:10.462Z,30.77
2019-04-04T19:46:37.484Z,30.78
2019-04-04T19:49:03.064Z,30.88
2019-04-04T19:51:29.396Z,30.88
2019-04-04T19:53:55.739Z,30.91
2019-04-04T19:56:22.111Z,30.93
2019-04-04T19:58:48.520Z,30.97
2019-04-04T20:01:14.806Z,31.00
2019-04-04T20:03:41.131Z,31.04
2019-04-04T20:06:07.491Z,31.04
2019-04-04T20:08:33.856Z,31.08
2019-04-04T20:11:02.443Z,31.20
2019-04-04T20:13:31.082Z,31.20
2019-04-04T20:15:52.994Z,31.20
2019-04-04T20:18:19.324Z,31.20
2019-04-04T20:20:45.783Z,31.10
2019-04-04T20:23:12.127Z,31.20
2019-04-04T20:25:38.414Z,31.36
2019-04-04T20:28:04.730Z,31.20
2019-04-04T20:30:31.100Z,31.27
2019-04-04T20:32:57.460Z,31.39
2019-04-04T20:35:26.726Z,31.42
2019-04-04T20:37:50.187Z,31.36
2019-04-04T20:40:16.663Z,31.43
2019-04-04T20:42:43.065Z,31.30
2019-04-04T20:45:09.412Z,31.38
2019-04-04T20:47:35.741Z,31.50
2019-04-04T20:50:02.092Z,31.49
2019-04-04T20:52:28.492Z,31.46
2019-04-04T20:54:54.819Z,31.49
2019-04-04T20:57:21.159Z,31.42
2019-04-04T20:59:47.518Z,31.56
2019-04-04T21:02:13.850Z,31.09
2019-04-04T21:04:40.191Z,31.46
2019-04-04T21:07:06.584Z,31.59
2019-04-04T21:09:33.074Z,31.51
2019-04-04T21:11:59.411Z,31.58
2019-04-04T21:14:25.812Z,31.66
2019-04-04T21:16:52.158Z,31.69
2019-04-04T21:19:18.498Z,31.72
2019-04-04T21:21:44.829Z,31.69
2019-04-04T21:24:11.159Z,31.65
2019-04-04T21:26:37.558Z,31.71
2019-04-04T21:29:03.983Z,31.75
2019-04-04T21:31:30.301Z,31.78
2019-04-04T21:33:56.590Z,31.82
2019-04-04T21:36:22.955Z,31.80
2019-04-04T21:38:49.330Z,31.76
2019-04-04T21:41:15.678Z,31.80
2019-04-04T21:43:42.067Z,31.88
2019-04-04T21:46:08.335Z,31.84
2019-04-04T21:48:34.679Z,31.85
2019-04-04T21:51:01.069Z,31.85
2019-04-04T21:53:27.413Z,31.93
2019-04-04T21:55:53.795Z,31.88
2019-04-04T21:58:20.097Z,31.91
2019-04-04T22:00:46.421Z,31.92
2019-04-04T22:03:12.796Z,31.95
2019-04-04T22:05:39.144Z,31.98
2019-04-04T22:08:05.578Z,31.94
2019-04-04T22:10:31.904Z,32.01
2019-04-04T22:12:58.243Z,31.94
2019-04-04T22:15:24.575Z,32.00
2019-04-04T22:17:50.915Z,32.05
2019-04-04T22:20:17.277Z,32.06
2019-04-04T22:22:43.626Z,32.07
2019-04-04T22:25:09.991Z,32.17
2019-04-04T22:27:36.345Z,32.14
2019-04-04T22:30:02.681Z,32.23
2019-04-04T22:32:29.013Z,32.23
2019-04-04T22:34:55.378Z,32.20
2019-04-04T22:37:21.789Z,32.30
2019-04-04T22:39:48.157Z,32.26
2019-04-04T22:42:14.497Z,32.20
2019-04-04T22:44:40.857Z,32.23
2019-04-04T22:47:07.211Z,32.30
2019-04-04T22:49:33.586Z,32.30
2019-04-04T22:51:59.914Z,32.33
2019-04-04T22:54:26.247Z,32.39
2019-04-04T22:56:52.619Z,32.39
2019-04-04T22:59:18.959Z,32.40
2019-04-04T23:01:45.300Z,32.32
2019-04-04T23:04:11.643Z,32.39
2019-04-04T23:06:38.123Z,32.53
2019-04-04T23:09:04.494Z,32.55
2019-04-04T23:11:30.829Z,32.52
2019-04-04T23:13:57.163Z,32.43
2019-04-04T23:16:23.582Z,32.49
2019-04-04T23:18:49.916Z,32.62
2019-04-04T23:21:16.280Z,32.53
2019-04-04T23:23:42.660Z,32.65
2019-04-04T23:26:08.979Z,32.60
2019-04-04T23:28:35.340Z,32.59
2019-04-04T23:31:01.665Z,32.53
2019-04-04T23:33:28.038Z,32.64
2019-04-04T23:35:54.374Z,32.69
2019-04-04T23:38:20.719Z,32.79
2019-04-04T23:40:47.066Z,32.74
2019-04-04T23:43:13.411Z,32.72
2019-04-04T23:45:39.765Z,32.83
2019-04-04T23:48:06.071Z,32.79
2019-04-04T23:50:32.454Z,32.69
2019-04-04T23:52:58.748Z,32.81
2019-04-04T23:55:25.187Z,32.81
2019-04-04T23:57:51.457Z,32.81
